Time,TemperatureF,DewpointF,PressureIn,WindDirection,WindDirectionDegrees,WindSpeedMPH,WindSpeedGustMPH,Humidity,HourlyPrecipIn,Conditions,Clouds,dailyrainin,SoftwareType,DateUTC
2013-01-26 00:01:00,51.9,46.3,30.09,NNE,22,0.0,0.0,81,0.00,,OVC012,0.00,VWS V14.01,2013-01-26 06:01:00,
2013-01-26 00:06:00,51.9,46.3,30.09,NNE,22,0.0,0.0,81,0.00,,OVC012,0.00,VWS V14.01,2013-01-26 06:06:00,
2013-01-26 00:11:00,51.9,46.3,30.09,NNE,22,0.0,0.0,81,0.00,,OVC012,0.00,VWS V14.01,2013-01-26 06:11:00,
2013-01-26 00:16:00,51.9,46.3,30.09,NNE,22,0.0,0.0,81,0.00,,OVC012,0.00,VWS V14.01,2013-01-26 06:16:00,
2013-01-26 00:21:00,51.9,46.3,30.09,NNE,22,0.0,0.0,81,0.00,,OVC012,0.00,VWS V14.01,2013-01-26 06:21:00,
2013-01-26 00:26:00,51.9,46.3,30.09,NNE,22,0.0,0.0,81,0.00,,OVC012,0.00,VWS V14.01,2013-01-26 06:26:00,
2013-01-26 00:31:00,51.9,46.3,30.09,NNE,22,0.0,0.0,81,0.00,,OVC012,0.00,VWS V14.01,2013-01-26 06:31:00,
2013-01-26 00:36:00,51.9,46.3,30.09,NNE,22,0.0,0.0,81,0.00,,OVC012,0.00,VWS V14.01,2013-01-26 06:36:00,
2013-01-26 00:41:00,51.9,46.3,30.09,NNE,22,0.0,4.0,81,0.00,,OVC012,0.00,VWS V14.01,2013-01-26 06:41:00,
2013-01-26 00:46:00,51.9,46.3,30.10,North,11,4.0,5.0,81,0.00,,OVC012,0.00,VWS V14.01,2013-01-26 06:46:00,
2013-01-26 00:51:00,51.9,46.3,30.10,North,10,0.0,0.0,81,0.00,,OVC012,0.00,VWS V14.01,2013-01-26 06:51:00,
2013-01-26 00:57:00,51.9,46.3,30.10,North,10,0.0,2.0,81,0.00,,OVC012,0.00,VWS V14.01,2013-01-26 06:57:00,
2013-01-26 01:02:00,51.9,46.3,30.10,North,10,0.0,0.0,81,0.00,,OVC012,0.00,VWS V14.01,2013-01-26 07:02:00,
2013-01-26 01:07:00,51.9,46.3,30.10,North,10,0.0,0.0,81,0.00,,OVC012,0.00,VWS V14.01,2013-01-26 07:07:00,
2013-01-26 01:12:00,51.9,46.3,30.10,North,10,0.0,0.0,81,0.00,,OVC012,0.00,VWS V14.01,2013-01-26 07:12:00,
2013-01-26 01:17:00,51.9,46.3,30.10,North,10,0.0,2.0,81,0.00,,OVC012,0.00,VWS V14.01,2013-01-26 07:17:00,
2013-01-26 01:22:00,51.9,46.3,30.10,North,5,0.0,5.0,81,0.00,,OVC012,0.00,VWS V14.01,2013-01-26 07:22:00,
2013-01-26 01:27:00,51.9,46.3,30.10,NNW,329,6.0,6.0,81,0.00,,OVC012,0.00,VWS V14.01,2013-01-26 07:27:00,
2013-01-26 01:32:00,51.9,46.3,30.11,NW,325,3.0,7.0,81,0.00,,OVC012,0.00,VWS V14.01,2013-01-26 07:32:00,
2013-01-26 01:37:00,51.9,46.3,30.11,NNW,331,1.0,10.0,81,0.00,,OVC012,0.00,VWS V14.01,2013-01-26 07:37:00,
2013-01-26 01:42:00,51.7,46.1,30.11,NNW,330,1.0,11.0,81,0.00,,OVC012,0.00,VWS V14.01,2013-01-26 07:42:00,
2013-01-26 01:47:00,51.6,46.3,30.11,NNW,345,4.0,11.0,82,0.00,,OVC012,0.00,VWS V14.01,2013-01-26 07:47:00,
2013-01-26 01:52:00,51.3,46.0,30.11,NNW,331,4.0,9.0,82,0.00,,OVC012,0.00,VWS V14.01,2013-01-26 07:52:00,
2013-01-26 01:57:00,51.0,45.7,30.11,NNW,332,0.0,9.0,82,0.00,,OVC012,0.00,VWS V14.01,2013-01-26 07:57:00,
2013-01-26 02:02:00,50.8,45.5,30.09,NE,37,0.0,5.0,82,0.00,,OVC012,0.00,VWS V14.01,2013-01-26 08:02:00,
2013-01-26 02:08:00,50.5,45.2,30.09,NE,36,0.0,5.0,82,0.00,,OVC012,0.00,VWS V14.01,2013-01-26 08:08:00,
2013-01-26 02:13:00,50.4,45.1,30.09,NE,36,0.0,0.0,82,0.00,,OVC012,0.00,VWS V14.01,2013-01-26 08:13:00,
2013-01-26 02:18:00,50.2,44.9,30.08,NE,36,0.0,0.0,82,0.00,,OVC012,0.00,VWS V14.01,2013-01-26 08:18:00,
2013-01-26 02:23:00,50.1,45.2,30.08,NE,36,0.0,0.0,83,0.00,,OVC012,0.00,VWS V14.01,2013-01-26 08:23:00,
2013-01-26 02:28:00,50.1,45.2,30.08,NE,36,0.0,0.0,83,0.00,,OVC012,0.00,VWS V14.01,2013-01-26 08:28:00,
2013-01-26 02:33:00,50.1,45.2,30.09,NE,36,0.0,0.0,83,0.00,,OVC012,0.00,VWS V14.01,2013-01-26 08:33:00,
2013-01-26 02:38:00,49.9,45.0,30.09,NE,36,0.0,0.0,83,0.00,,OVC012,0.00,VWS V14.01,2013-01-26 08:38:00,
2013-01-26 02:43:00,49.9,45.0,30.09,NE,36,0.0,2.0,83,0.00,,OVC012,0.00,VWS V14.01,2013-01-26 08:43:00,
2013-01-26 02:48:00,49.9,45.0,30.08,NE,36,0.0,2.0,83,0.00,,OVC012,0.00,VWS V14.01,2013-01-26 08:48:00,
2013-01-26 02:53:00,49.8,45.2,30.08,NE,36,0.0,0.0,84,0.00,,OVC012,0.00,VWS V14.01,2013-01-26 08:53:00,
2013-01-26 02:58:00,49.8,45.2,30.08,NE,36,0.0,0.0,84,0.00,,OVC012,0.00,VWS V14.01,2013-01-26 08:58:00,
2013-01-26 03:03:00,49.8,45.2,30.08,NE,36,0.0,0.0,84,0.00,,OVC012,0.00,VWS V14.01,2013-01-26 09:03:00,
2013-01-26 03:08:00,49.8,45.2,30.08,NE,36,0.0,0.0,84,0.00,,OVC012,0.00,VWS V14.01,2013-01-26 09:08:00,
2013-01-26 03:13:00,49.6,45.0,30.08,NE,36,0.0,0.0,84,0.00,,OVC008,0.00,VWS V14.01,2013-01-26 09:13:00,
2013-01-26 03:18:00,49.6,45.0,30.08,NE,36,0.0,4.0,84,0.00,,OVC008,0.00,VWS V14.01,2013-01-26 09:18:00,
2013-01-26 03:23:00,49.6,45.3,30.08,NE,36,0.0,0.0,85,0.00,,OVC008,0.00,VWS V14.01,2013-01-26 09:23:00,
2013-01-26 03:29:00,49.6,45.3,30.08,NE,36,0.0,0.0,85,0.00,,OVC008,0.00,VWS V14.01,2013-01-26 09:29:00,
2013-01-26 03:34:00,49.6,45.3,30.08,NE,36,0.0,0.0,85,0.00,,OVC008,0.00,VWS V14.01,2013-01-26 09:34:00,
2013-01-26 03:39:00,49.6,45.3,30.08,NE,36,0.0,0.0,85,0.00,,OVC008,0.00,VWS V14.01,2013-01-26 09:39:00,
2013-01-26 03:44:00,49.6,45.3,30.08,NE,36,0.0,0.0,85,0.00,,OVC008,0.00,VWS V14.01,2013-01-26 09:44:00,
2013-01-26 03:49:00,49.6,45.3,30.08,NE,36,0.0,3.0,85,0.00,,OVC008,0.00,VWS V14.01,2013-01-26 09:49:00,
2013-01-26 03:54:00,49.6,45.6,30.08,NNW,327,2.0,6.0,86,0.00,,OVC008,0.00,VWS V14.01,2013-01-26 09:54:00,
2013-01-26 03:59:00,49.8,45.8,30.08,NNW,344,2.0,6.0,86,0.00,,OVC008,0.00,VWS V14.01,2013-01-26 09:59:00,
2013-01-26 04:04:00,49.8,45.8,30.08,NNW,344,0.0,4.0,86,0.00,,OVC008,0.00,VWS V14.01,2013-01-26 10:04:00,
2013-01-26 04:09:00,49.9,45.9,30.08,NNW,336,0.0,4.0,86,0.00,,OVC008,0.00,VWS V14.01,2013-01-26 10:09:00,
2013-01-26 04:14:00,49.9,45.9,30.09,NNW,331,4.0,10.0,86,0.00,,,0.00,VWS V14.01,2013-01-26 10:14:00,
2013-01-26 04:19:00,49.8,46.1,30.09,NW,321,7.0,10.0,87,0.00,,,0.00,VWS V14.01,2013-01-26 10:19:00,
2013-01-26 04:24:00,49.6,45.9,30.09,NNW,328,4.0,7.0,87,0.00,,,0.00,VWS V14.01,2013-01-26 10:24:00,
2013-01-26 04:30:00,49.5,45.8,30.09,NW,322,2.0,7.0,87,0.00,,,0.00,VWS V14.01,2013-01-26 10:30:00,
2013-01-26 04:35:00,49.4,45.7,30.09,NNW,327,3.0,6.0,87,0.00,,,0.00,VWS V14.01,2013-01-26 10:35:00,
2013-01-26 04:40:00,49.2,45.8,30.09,NNW,329,0.0,6.0,88,0.00,,,0.00,VWS V14.01,2013-01-26 10:40:00,
2013-01-26 04:45:00,49.2,45.8,30.08,NNW,329,0.0,0.0,88,0.00,,,0.00,VWS V14.01,2013-01-26 10:45:00,
2013-01-26 04:50:00,49.1,45.7,30.08,NNW,329,0.0,0.0,88,0.00,,,0.00,VWS V14.01,2013-01-26 10:50:00,
2013-01-26 04:55:00,49.1,45.7,30.08,NNW,329,0.0,0.0,88,0.00,,,0.00,VWS V14.01,2013-01-26 10:55:00,
2013-01-26 05:00:00,48.9,45.5,30.07,NNW,329,0.0,0.0,88,0.00,,,0.00,VWS V14.01,2013-01-26 11:00:00,
2013-01-26 05:05:00,48.9,45.8,30.07,NNW,329,0.0,0.0,89,0.00,,,0.00,VWS V14.01,2013-01-26 11:05:00,
2013-01-26 05:11:00,48.9,45.8,30.07,NNW,329,0.0,0.0,89,0.00,,,0.00,VWS V14.01,2013-01-26 11:11:00,
2013-01-26 05:16:00,48.9,45.8,30.07,NNW,329,0.0,0.0,89,0.00,,,0.00,VWS V14.01,2013-01-26 11:16:00,
2013-01-26 05:21:00,48.9,45.8,30.07,NNW,329,0.0,0.0,89,0.00,,,0.00,VWS V14.01,2013-01-26 11:21:00,
2013-01-26 05:26:00,48.9,45.8,30.07,NNW,329,0.0,1.0,89,0.00,,,0.00,VWS V14.01,2013-01-26 11:26:00,
2013-01-26 05:31:00,48.8,46.0,30.07,NNW,329,0.0,0.0,90,0.00,,,0.00,VWS V14.01,2013-01-26 11:31:00,
2013-01-26 05:36:00,48.8,46.0,30.07,NNW,329,0.0,0.0,90,0.00,,,0.00,VWS V14.01,2013-01-26 11:36:00,
2013-01-26 05:41:00,48.6,45.8,30.07,NNW,329,0.0,0.0,90,0.00,,,0.00,VWS V14.01,2013-01-26 11:41:00,
2013-01-26 05:46:00,48.6,45.8,30.08,NW,319,0.0,4.0,90,0.00,,,0.00,VWS V14.01,2013-01-26 11:46:00,
2013-01-26 05:51:00,48.6,45.8,30.08,NNW,340,2.0,5.0,90,0.00,,,0.00,VWS V14.01,2013-01-26 11:51:00,
2013-01-26 05:57:00,48.5,45.7,30.08,NNW,330,3.0,7.0,90,0.00,,,0.00,VWS V14.01,2013-01-26 11:57:00,
2013-01-26 06:02:00,48.5,45.7,30.08,NNW,340,0.0,0.0,90,0.00,,,0.00,VWS V14.01,2013-01-26 12:02:00,
2013-01-26 06:07:00,48.3,45.5,30.08,North,355,0.0,5.0,90,0.00,,,0.00,VWS V14.01,2013-01-26 12:07:00,
2013-01-26 06:12:00,48.3,45.8,30.08,NNW,343,0.0,0.0,91,0.00,,,0.00,VWS V14.01,2013-01-26 12:12:00,
2013-01-26 06:17:00,48.3,45.8,30.09,NNW,336,7.0,7.0,91,0.00,,,0.00,VWS V14.01,2013-01-26 12:17:00,
2013-01-26 06:22:00,48.3,45.8,30.09,North,355,0.0,6.0,91,0.00,,,0.00,VWS V14.01,2013-01-26 12:22:00,
2013-01-26 06:27:00,48.3,45.8,30.09,North,350,0.0,6.0,91,0.00,,,0.00,VWS V14.01,2013-01-26 12:27:00,
2013-01-26 06:32:00,48.2,45.7,30.09,North,349,1.0,5.0,91,0.00,,,0.00,VWS V14.01,2013-01-26 12:32:00,
2013-01-26 06:37:00,48.2,45.7,30.09,NNW,343,0.0,6.0,91,0.00,,,0.00,VWS V14.01,2013-01-26 12:37:00,
2013-01-26 06:43:00,48.2,45.7,30.09,North,355,0.0,6.0,91,0.00,,,0.00,VWS V14.01,2013-01-26 12:43:00,
2013-01-26 06:48:00,48.2,45.7,30.10,North,350,2.0,6.0,91,0.00,,,0.00,VWS V14.01,2013-01-26 12:48:00,
2013-01-26 06:53:00,48.2,45.7,30.10,NNW,338,0.0,5.0,91,0.00,,,0.00,VWS V14.01,2013-01-26 12:53:00,
2013-01-26 06:58:00,48.2,46.0,30.10,NNW,338,0.0,5.0,92,0.00,,,0.00,VWS V14.01,2013-01-26 12:58:00,
2013-01-26 07:03:00,48.3,46.1,30.10,NNW,335,0.0,0.0,92,0.00,,,0.00,VWS V14.01,2013-01-26 13:03:00,
2013-01-26 07:08:00,48.2,46.0,30.10,NNW,335,0.0,0.0,92,0.00,,,0.00,VWS V14.01,2013-01-26 13:08:00,
2013-01-26 07:13:00,48.2,46.0,30.10,NNW,335,0.0,0.0,92,0.00,,,0.00,VWS V14.01,2013-01-26 13:13:00,
2013-01-26 07:18:00,48.2,46.0,30.10,NNW,335,0.0,0.0,92,0.00,,,0.00,VWS V14.01,2013-01-26 13:18:00,
2013-01-26 07:24:00,48.2,46.0,30.10,NNW,335,0.0,0.0,92,0.00,,,0.00,VWS V14.01,2013-01-26 13:24:00,
2013-01-26 07:29:00,48.2,46.0,30.10,NNW,335,0.0,0.0,92,0.00,,,0.00,VWS V14.01,2013-01-26 13:29:00,
2013-01-26 07:34:00,48.2,46.0,30.10,NNW,335,0.0,0.0,92,0.00,,,0.00,VWS V14.01,2013-01-26 13:34:00,
2013-01-26 07:39:00,48.0,45.8,30.10,NNW,335,0.0,0.0,92,0.00,,,0.00,VWS V14.01,2013-01-26 13:39:00,
2013-01-26 07:44:00,48.0,45.8,30.10,NNW,335,0.0,0.0,92,0.00,,,0.00,VWS V14.01,2013-01-26 13:44:00,
2013-01-26 07:49:00,48.0,45.8,30.10,NNW,335,0.0,0.0,92,0.00,,,0.00,VWS V14.01,2013-01-26 13:49:00,
2013-01-26 07:54:00,48.0,45.8,30.10,NNW,335,0.0,0.0,92,0.00,,,0.00,VWS V14.01,2013-01-26 13:54:00,
2013-01-26 07:59:00,48.0,45.8,30.11,NNW,335,0.0,0.0,92,0.00,,,0.00,VWS V14.01,2013-01-26 13:59:00,
2013-01-26 08:04:00,48.0,45.8,30.11,NNW,335,0.0,0.0,92,0.00,,,0.00,VWS V14.01,2013-01-26 14:04:00,
2013-01-26 08:09:00,48.0,45.8,30.11,NNW,335,0.0,0.0,92,0.00,,,0.00,VWS V14.01,2013-01-26 14:09:00,
2013-01-26 08:14:00,48.2,46.0,30.11,NNW,335,0.0,0.0,92,0.00,,,0.00,VWS V14.01,2013-01-26 14:14:00,
2013-01-26 08:19:00,48.2,46.0,30.11,NNW,335,0.0,0.0,92,0.00,,,0.00,VWS V14.01,2013-01-26 14:19:00,
2013-01-26 08:25:00,48.2,46.0,30.11,NNW,331,0.0,5.0,92,0.01,,,0.01,VWS V14.01,2013-01-26 14:25:00,
2013-01-26 08:30:00,48.3,46.4,30.12,NNW,331,0.0,5.0,93,0.01,,,0.01,VWS V14.01,2013-01-26 14:30:00,
2013-01-26 08:35:00,48.3,46.4,30.12,NNW,331,2.0,2.0,93,0.01,,,0.01,VWS V14.01,2013-01-26 14:35:00,
2013-01-26 08:40:00,48.3,46.4,30.12,NNW,331,0.0,5.0,93,0.01,,,0.01,VWS V14.01,2013-01-26 14:40:00,
2013-01-26 08:45:00,48.3,46.4,30.12,NNW,331,0.0,3.0,93,0.01,,,0.01,VWS V14.01,2013-01-26 14:45:00,
2013-01-26 08:50:00,48.5,46.6,30.12,NNW,347,0.0,3.0,93,0.01,,,0.01,VWS V14.01,2013-01-26 14:50:00,
2013-01-26 08:55:00,48.5,46.6,30.12,NNW,347,0.0,0.0,93,0.01,,,0.01,VWS V14.01,2013-01-26 14:55:00,
2013-01-26 09:00:00,48.5,46.6,30.13,NW,314,0.0,0.0,93,0.01,,,0.01,VWS V14.01,2013-01-26 15:00:00,
2013-01-26 09:05:00,48.5,46.6,30.13,NNE,16,0.0,5.0,93,0.01,,,0.01,VWS V14.01,2013-01-26 15:05:00,
2013-01-26 09:10:00,48.5,46.6,30.13,NW,322,0.0,0.0,93,0.01,,,0.01,VWS V14.01,2013-01-26 15:10:00,
2013-01-26 09:15:00,48.3,46.4,30.12,NW,322,0.0,1.0,93,0.01,,,0.01,VWS V14.01,2013-01-26 15:15:00,
2013-01-26 09:20:00,48.5,46.6,30.12,NW,322,0.0,0.0,93,0.01,,,0.01,VWS V14.01,2013-01-26 15:20:00,
2013-01-26 09:26:00,48.3,46.4,30.12,NW,322,0.0,0.0,93,0.01,,,0.01,VWS V14.01,2013-01-26 15:26:00,
2013-01-26 09:31:00,48.3,46.4,30.13,NW,322,0.0,0.0,93,0.00,,,0.01,VWS V14.01,2013-01-26 15:31:00,
2013-01-26 09:36:00,48.3,46.4,30.13,NW,322,0.0,0.0,93,0.00,,,0.01,VWS V14.01,2013-01-26 15:36:00,
2013-01-26 09:41:00,48.3,46.4,30.13,NW,322,0.0,0.0,93,0.00,,,0.01,VWS V14.01,2013-01-26 15:41:00,
2013-01-26 09:46:00,48.3,46.4,30.14,NW,322,0.0,0.0,93,0.00,,,0.01,VWS V14.01,2013-01-26 15:46:00,
2013-01-26 09:51:00,48.3,46.4,30.14,NW,321,0.0,0.0,93,0.00,,,0.01,VWS V14.01,2013-01-26 15:51:00,
2013-01-26 09:56:00,48.3,46.4,30.14,NW,320,0.0,0.0,93,0.00,,,0.01,VWS V14.01,2013-01-26 15:56:00,
2013-01-26 10:01:00,48.3,46.4,30.14,NW,321,0.0,0.0,93,0.00,,,0.01,VWS V14.01,2013-01-26 16:01:00,
2013-01-26 10:07:00,48.5,46.6,30.14,NW,321,2.0,4.0,93,0.00,,,0.01,VWS V14.01,2013-01-26 16:07:00,
2013-01-26 10:12:00,48.5,46.6,30.14,NW,321,0.0,0.0,93,0.00,,,0.01,VWS V14.01,2013-01-26 16:12:00,
2013-01-26 10:17:00,48.5,46.6,30.14,NW,321,0.0,5.0,93,0.00,,,0.01,VWS V14.01,2013-01-26 16:17:00,
2013-01-26 10:22:00,48.6,46.7,30.14,NW,321,0.0,0.0,93,0.00,,,0.01,VWS V14.01,2013-01-26 16:22:00,
2013-01-26 10:27:00,48.6,46.7,30.14,NW,321,0.0,4.0,93,0.00,,,0.01,VWS V14.01,2013-01-26 16:27:00,
2013-01-26 10:32:00,48.8,46.9,30.14,NW,321,0.0,3.0,93,0.00,,,0.01,VWS V14.01,2013-01-26 16:32:00,
2013-01-26 10:37:00,48.9,47.0,30.14,NW,321,0.0,3.0,93,0.00,,,0.01,VWS V14.01,2013-01-26 16:37:00,
2013-01-26 10:42:00,48.9,47.0,30.14,NW,321,0.0,0.0,93,0.00,,,0.01,VWS V14.01,2013-01-26 16:42:00,
2013-01-26 10:47:00,48.9,47.0,30.14,NW,321,0.0,4.0,93,0.00,,,0.01,VWS V14.01,2013-01-26 16:47:00,
2013-01-26 10:52:00,48.9,47.0,30.14,NW,321,0.0,0.0,93,0.00,,,0.01,VWS V14.01,2013-01-26 16:52:00,
2013-01-26 10:58:00,49.2,47.3,30.14,NW,321,2.0,5.0,93,0.00,,,0.01,VWS V14.01,2013-01-26 16:58:00,
2013-01-26 11:03:00,49.2,47.3,30.14,NW,321,0.0,3.0,93,0.00,,,0.01,VWS V14.01,2013-01-26 17:03:00,
2013-01-26 11:08:00,49.4,47.5,30.14,NW,321,0.0,4.0,93,0.00,,,0.01,VWS V14.01,2013-01-26 17:08:00,
2013-01-26 11:13:00,49.5,47.6,30.14,NW,321,0.0,0.0,93,0.00,,,0.01,VWS V14.01,2013-01-26 17:13:00,
2013-01-26 11:18:00,49.5,47.6,30.14,NW,321,0.0,0.0,93,0.00,,,0.01,VWS V14.01,2013-01-26 17:18:00,
2013-01-26 11:23:00,49.5,47.6,30.14,NW,321,0.0,1.0,93,0.00,,,0.01,VWS V14.01,2013-01-26 17:23:00,
2013-01-26 11:28:00,49.6,47.7,30.14,NW,321,0.0,3.0,93,0.00,,,0.01,VWS V14.01,2013-01-26 17:28:00,
2013-01-26 11:34:00,49.6,48.0,30.14,NW,321,0.0,0.0,94,0.00,,,0.01,VWS V14.01,2013-01-26 17:34:00,
2013-01-26 11:39:00,49.8,48.2,30.14,NW,321,0.0,0.0,94,0.00,,,0.01,VWS V14.01,2013-01-26 17:39:00,
2013-01-26 11:44:00,49.8,48.2,30.14,NW,321,0.0,2.0,94,0.00,,,0.01,VWS V14.01,2013-01-26 17:44:00,
2013-01-26 11:49:00,49.9,48.2,30.14,NW,321,0.0,2.0,94,0.00,,,0.01,VWS V14.01,2013-01-26 17:49:00,
2013-01-26 11:54:00,50.1,48.4,30.14,NW,321,0.0,0.0,94,0.00,,,0.01,VWS V14.01,2013-01-26 17:54:00,
2013-01-26 11:59:00,50.1,48.4,30.14,NW,321,0.0,0.0,94,0.00,,,0.01,VWS V14.01,2013-01-26 17:59:00,
2013-01-26 12:04:00,50.2,48.5,30.14,NW,321,0.0,0.0,94,0.00,,,0.01,VWS V14.01,2013-01-26 18:04:00,
2013-01-26 12:09:00,50.4,48.7,30.14,NW,321,0.0,0.0,94,0.00,,,0.01,VWS V14.01,2013-01-26 18:09:00,
2013-01-26 12:15:00,50.5,48.8,30.12,NW,321,0.0,0.0,94,0.00,,,0.01,VWS V14.01,2013-01-26 18:15:00,
2013-01-26 12:20:00,50.7,49.0,30.12,NW,321,0.0,0.0,94,0.00,,,0.01,VWS V14.01,2013-01-26 18:20:00,
2013-01-26 12:25:00,50.8,49.1,30.12,NNW,333,0.0,2.0,94,0.00,,,0.01,VWS V14.01,2013-01-26 18:25:00,
2013-01-26 12:30:00,50.8,49.1,30.12,North,360,0.0,4.0,94,0.00,,,0.01,VWS V14.01,2013-01-26 18:30:00,
2013-01-26 12:35:00,50.8,49.1,30.12,North,360,0.0,4.0,94,0.00,,,0.01,VWS V14.01,2013-01-26 18:35:00,
2013-01-26 12:40:00,50.8,49.1,30.12,North,360,0.0,0.0,94,0.00,,,0.01,VWS V14.01,2013-01-26 18:40:00,
2013-01-26 12:45:00,51.0,49.3,30.11,North,360,0.0,0.0,94,0.00,,,0.01,VWS V14.01,2013-01-26 18:45:00,
2013-01-26 12:50:00,51.0,49.3,30.11,North,360,1.0,3.0,94,0.00,,,0.01,VWS V14.01,2013-01-26 18:50:00,
2013-01-26 12:55:00,51.0,49.3,30.11,North,360,0.0,4.0,94,0.00,,,0.01,VWS V14.01,2013-01-26 18:55:00,
2013-01-26 13:00:00,51.1,49.4,30.10,North,360,0.0,0.0,94,0.00,,,0.01,VWS V14.01,2013-01-26 19:00:00,
2013-01-26 13:06:00,51.3,49.6,30.10,North,360,0.0,0.0,94,0.00,,,0.01,VWS V14.01,2013-01-26 19:06:00,
2013-01-26 13:11:00,51.3,49.6,30.10,North,360,0.0,0.0,94,0.00,,,0.01,VWS V14.01,2013-01-26 19:11:00,
2013-01-26 13:16:00,51.4,49.7,30.09,North,360,0.0,0.0,94,0.00,,,0.01,VWS V14.01,2013-01-26 19:16:00,
2013-01-26 13:21:00,51.6,49.9,30.09,North,360,0.0,0.0,94,0.00,,,0.01,VWS V14.01,2013-01-26 19:21:00,
2013-01-26 13:26:00,51.6,49.9,30.09,North,360,0.0,0.0,94,0.00,,,0.01,VWS V14.01,2013-01-26 19:26:00,
2013-01-26 13:31:00,51.7,50.0,30.08,North,360,0.0,0.0,94,0.00,,,0.01,VWS V14.01,2013-01-26 19:31:00,
2013-01-26 13:36:00,51.7,50.0,30.08,North,360,0.0,0.0,94,0.00,,,0.01,VWS V14.01,2013-01-26 19:36:00,
2013-01-26 13:41:00,51.9,50.2,30.08,North,360,0.0,0.0,94,0.00,,,0.01,VWS V14.01,2013-01-26 19:41:00,
2013-01-26 13:46:00,51.9,50.2,30.08,North,360,0.0,0.0,94,0.00,,,0.01,VWS V14.01,2013-01-26 19:46:00,
2013-01-26 13:51:00,51.9,50.2,30.08,North,360,0.0,0.0,94,0.00,,,0.01,VWS V14.01,2013-01-26 19:51:00,
2013-01-26 13:57:00,51.9,50.2,30.08,North,360,0.0,0.0,94,0.00,,,0.01,VWS V14.01,2013-01-26 19:57:00,
2013-01-26 14:02:00,51.9,50.2,30.07,North,360,0.0,0.0,94,0.00,,,0.01,VWS V14.01,2013-01-26 20:02:00,
2013-01-26 14:07:00,51.9,50.2,30.07,North,360,0.0,0.0,94,0.00,,,0.01,VWS V14.01,2013-01-26 20:07:00,
2013-01-26 14:12:00,51.7,50.0,30.07,North,360,0.0,0.0,94,0.00,,,0.01,VWS V14.01,2013-01-26 20:12:00,
2013-01-26 14:17:00,51.9,50.2,30.07,North,360,0.0,0.0,94,0.00,,,0.01,VWS V14.01,2013-01-26 20:17:00,
2013-01-26 14:22:00,51.9,50.2,30.07,North,360,0.0,0.0,94,0.00,,,0.01,VWS V14.01,2013-01-26 20:22:00,
2013-01-26 14:27:00,52.0,50.3,30.07,North,360,3.0,3.0,94,0.00,,,0.01,VWS V14.01,2013-01-26 20:27:00,
2013-01-26 14:32:00,52.0,50.3,30.06,North,360,0.0,0.0,94,0.00,,,0.01,VWS V14.01,2013-01-26 20:32:00,
2013-01-26 14:37:00,52.0,50.3,30.06,North,360,0.0,0.0,94,0.00,,,0.01,VWS V14.01,2013-01-26 20:37:00,
2013-01-26 14:42:00,52.2,50.5,30.06,North,360,0.0,0.0,94,0.00,,,0.01,VWS V14.01,2013-01-26 20:42:00,
2013-01-26 14:47:00,52.2,50.5,30.06,North,360,0.0,2.0,94,0.00,,,0.01,VWS V14.01,2013-01-26 20:47:00,
2013-01-26 14:53:00,52.2,50.5,30.06,North,360,0.0,0.0,94,0.00,,,0.01,VWS V14.01,2013-01-26 20:53:00,
2013-01-26 14:58:00,52.2,50.5,30.06,North,360,0.0,0.0,94,0.00,,,0.01,VWS V14.01,2013-01-26 20:58:00,
2013-01-26 15:03:00,52.2,50.5,30.07,North,360,0.0,0.0,94,0.00,,,0.01,VWS V14.01,2013-01-26 21:03:00,
2013-01-26 15:08:00,52.3,50.6,30.07,North,360,0.0,0.0,94,0.00,,,0.01,VWS V14.01,2013-01-26 21:08:00,
2013-01-26 15:13:00,52.3,50.6,30.07,North,360,3.0,3.0,94,0.00,,,0.01,VWS V14.01,2013-01-26 21:13:00,
2013-01-26 15:18:00,52.3,50.6,30.07,NNE,28,0.0,4.0,94,0.00,,,0.01,VWS V14.01,2013-01-26 21:18:00,
2013-01-26 15:23:00,52.3,50.6,30.07,NNE,28,0.0,0.0,94,0.00,,,0.01,VWS V14.01,2013-01-26 21:23:00,
2013-01-26 15:28:00,52.5,50.8,30.07,NNE,28,0.0,0.0,94,0.00,,,0.01,VWS V14.01,2013-01-26 21:28:00,
2013-01-26 15:34:00,52.5,50.8,30.07,NNE,28,0.0,0.0,94,0.00,,,0.01,VWS V14.01,2013-01-26 21:34:00,
2013-01-26 15:39:00,52.5,50.8,30.07,NNE,28,0.0,0.0,94,0.00,,,0.01,VWS V14.01,2013-01-26 21:39:00,
2013-01-26 15:44:00,52.6,50.9,30.07,NNE,28,0.0,0.0,94,0.00,,,0.01,VWS V14.01,2013-01-26 21:44:00,
2013-01-26 15:49:00,52.6,50.9,30.07,NNE,28,0.0,0.0,94,0.00,,,0.01,VWS V14.01,2013-01-26 21:49:00,
2013-01-26 15:54:00,52.8,51.1,30.07,NNE,28,0.0,0.0,94,0.00,,,0.01,VWS V14.01,2013-01-26 21:54:00,
2013-01-26 15:59:00,52.9,51.2,30.06,NNE,28,0.0,0.0,94,0.00,,,0.01,VWS V14.01,2013-01-26 21:59:00,
2013-01-26 16:04:00,52.9,51.2,30.06,NNE,28,0.0,0.0,94,0.00,,,0.01,VWS V14.01,2013-01-26 22:04:00,
2013-01-26 16:09:00,53.1,51.4,30.06,NNE,28,0.0,0.0,94,0.00,,,0.01,VWS V14.01,2013-01-26 22:09:00,
2013-01-26 16:14:00,53.1,51.4,30.06,NE,41,0.0,4.0,94,0.00,,,0.01,VWS V14.01,2013-01-26 22:14:00,
2013-01-26 16:19:00,53.1,51.4,30.06,NE,41,3.0,4.0,94,0.00,,,0.01,VWS V14.01,2013-01-26 22:19:00,
2013-01-26 16:24:00,53.1,51.4,30.06,NE,41,0.0,1.0,94,0.00,,,0.01,VWS V14.01,2013-01-26 22:24:00,
2013-01-26 16:30:00,53.2,51.5,30.06,NE,41,0.0,1.0,94,0.00,,,0.01,VWS V14.01,2013-01-26 22:30:00,
2013-01-26 16:35:00,53.2,51.5,30.06,NE,41,0.0,0.0,94,0.00,,,0.01,VWS V14.01,2013-01-26 22:35:00,
2013-01-26 16:40:00,53.2,51.5,30.06,NE,41,0.0,0.0,94,0.00,,,0.01,VWS V14.01,2013-01-26 22:40:00,
2013-01-26 16:45:00,53.2,51.5,30.05,NE,42,0.0,4.0,94,0.00,,,0.01,VWS V14.01,2013-01-26 22:45:00,
2013-01-26 16:50:00,53.2,51.5,30.05,NE,42,0.0,4.0,94,0.00,,,0.01,VWS V14.01,2013-01-26 22:50:00,
2013-01-26 16:55:00,53.2,51.5,30.05,NE,42,0.0,4.0,94,0.00,,,0.01,VWS V14.01,2013-01-26 22:55:00,
2013-01-26 17:00:00,53.2,51.5,30.06,NE,42,0.0,4.0,94,0.00,,,0.01,VWS V14.01,2013-01-26 23:00:00,
2013-01-26 17:05:00,53.2,51.5,30.06,NE,42,0.0,0.0,94,0.00,,,0.01,VWS V14.01,2013-01-26 23:05:00,
2013-01-26 17:10:00,53.3,51.6,30.06,NE,42,0.0,0.0,94,0.00,,,0.01,VWS V14.01,2013-01-26 23:10:00,
2013-01-26 17:15:00,53.3,51.6,30.06,NE,44,3.0,4.0,94,0.00,,,0.01,VWS V14.01,2013-01-26 23:15:00,
2013-01-26 17:20:00,53.3,51.6,30.06,NE,44,0.0,0.0,94,0.00,,,0.01,VWS V14.01,2013-01-26 23:20:00,
2013-01-26 17:25:00,53.3,51.6,30.06,NE,49,0.0,5.0,94,0.00,,,0.01,VWS V14.01,2013-01-26 23:25:00,
2013-01-26 17:31:00,53.3,51.6,30.05,NE,49,0.0,0.0,94,0.00,,,0.01,VWS V14.01,2013-01-26 23:31:00,
2013-01-26 17:36:00,53.3,51.6,30.05,NE,49,0.0,0.0,94,0.00,,,0.01,VWS V14.01,2013-01-26 23:36:00,
2013-01-26 17:41:00,53.3,51.6,30.05,NE,49,0.0,0.0,94,0.00,,,0.01,VWS V14.01,2013-01-26 23:41:00,
2013-01-26 17:46:00,53.3,51.6,30.05,NE,49,0.0,0.0,94,0.00,,,0.01,VWS V14.01,2013-01-26 23:46:00,
2013-01-26 17:51:00,53.3,51.6,30.05,NNE,32,4.0,4.0,94,0.00,,,0.01,VWS V14.01,2013-01-26 23:51:00,
2013-01-26 17:56:00,53.3,51.6,30.05,NNE,32,0.0,4.0,94,0.00,,,0.01,VWS V14.01,2013-01-26 23:56:00,
2013-01-26 18:01:00,53.3,51.6,30.06,NNE,32,4.0,5.0,94,0.00,,,0.01,VWS V14.01,2013-01-27 00:01:00,
2013-01-26 18:06:00,53.3,51.6,30.06,NNE,32,2.0,5.0,94,0.00,,,0.01,VWS V14.01,2013-01-27 00:06:00,
2013-01-26 18:11:00,53.2,51.5,30.06,NNE,32,0.0,0.0,94,0.00,,,0.01,VWS V14.01,2013-01-27 00:11:00,
2013-01-26 18:17:00,53.2,51.5,30.06,NNE,32,0.0,0.0,94,0.00,,,0.01,VWS V14.01,2013-01-27 00:17:00,
2013-01-26 18:22:00,53.2,51.5,30.06,NNE,32,0.0,0.0,94,0.00,,,0.01,VWS V14.01,2013-01-27 00:22:00,
2013-01-26 18:27:00,53.1,51.4,30.06,NE,40,0.0,5.0,94,0.00,,,0.01,VWS V14.01,2013-01-27 00:27:00,
2013-01-26 18:32:00,53.1,51.4,30.05,ENE,57,0.0,6.0,94,0.00,,,0.01,VWS V14.01,2013-01-27 00:32:00,
2013-01-26 18:37:00,52.9,51.2,30.05,NE,55,0.0,6.0,94,0.00,,,0.01,VWS V14.01,2013-01-27 00:37:00,
2013-01-26 18:42:00,52.9,51.2,30.05,NE,55,0.0,0.0,94,0.00,,,0.01,VWS V14.01,2013-01-27 00:42:00,
2013-01-26 18:47:00,52.9,51.2,30.05,NE,53,0.0,4.0,94,0.00,,,0.01,VWS V14.01,2013-01-27 00:47:00,
2013-01-26 18:52:00,52.9,51.2,30.05,NE,53,0.0,1.0,94,0.00,,,0.01,VWS V14.01,2013-01-27 00:52:00,
2013-01-26 18:57:00,52.8,51.4,30.05,NE,51,0.0,6.0,95,0.00,,,0.01,VWS V14.01,2013-01-27 00:57:00,
2013-01-26 19:02:00,52.8,51.4,30.06,NE,51,0.0,4.0,95,0.00,,,0.01,VWS V14.01,2013-01-27 01:02:00,
2013-01-26 19:08:00,52.8,51.4,30.06,ENE,61,0.0,5.0,95,0.00,,,0.01,VWS V14.01,2013-01-27 01:08:00,
2013-01-26 19:13:00,52.6,51.2,30.06,ENE,78,3.0,6.0,95,0.00,,,0.01,VWS V14.01,2013-01-27 01:13:00,
2013-01-26 19:18:00,52.5,51.1,30.06,ENE,63,0.0,6.0,95,0.00,,,0.01,VWS V14.01,2013-01-27 01:18:00,
2013-01-26 19:23:00,52.5,51.1,30.06,ENE,63,0.0,0.0,95,0.00,,,0.01,VWS V14.01,2013-01-27 01:23:00,
2013-01-26 19:28:00,52.5,51.1,30.06,ENE,65,0.0,7.0,95,0.00,,,0.01,VWS V14.01,2013-01-27 01:28:00,
2013-01-26 19:33:00,52.3,50.9,30.06,ENE,76,5.0,6.0,95,0.00,,,0.01,VWS V14.01,2013-01-27 01:33:00,
2013-01-26 19:38:00,52.3,50.9,30.06,ENE,76,0.0,6.0,95,0.00,,,0.01,VWS V14.01,2013-01-27 01:38:00,
2013-01-26 19:43:00,52.3,50.9,30.06,ENE,76,0.0,6.0,95,0.00,,,0.01,VWS V14.01,2013-01-27 01:43:00,
2013-01-26 19:48:00,52.3,50.9,30.06,ENE,78,4.0,6.0,95,0.00,,,0.01,VWS V14.01,2013-01-27 01:48:00,
2013-01-26 19:53:00,52.3,50.9,30.06,ENE,78,0.0,5.0,95,0.00,,,0.01,VWS V14.01,2013-01-27 01:53:00,
2013-01-26 19:58:00,52.2,50.8,30.06,ENE,67,0.0,6.0,95,0.00,,,0.01,VWS V14.01,2013-01-27 01:58:00,
2013-01-26 20:04:00,52.3,50.9,30.06,ENE,67,0.0,0.0,95,0.00,,,0.01,VWS V14.01,2013-01-27 02:04:00,
2013-01-26 20:09:00,52.3,50.9,30.06,ENE,61,0.0,6.0,95,0.00,,,0.01,VWS V14.01,2013-01-27 02:09:00,
2013-01-26 20:14:00,52.3,50.9,30.06,ENE,61,0.0,3.0,95,0.00,,,0.01,VWS V14.01,2013-01-27 02:14:00,
2013-01-26 20:19:00,52.3,50.9,30.06,ENE,77,3.0,4.0,95,0.00,,,0.01,VWS V14.01,2013-01-27 02:19:00,
2013-01-26 20:24:00,52.3,50.9,30.06,East,83,0.0,3.0,95,0.00,,,0.01,VWS V14.01,2013-01-27 02:24:00,
2013-01-26 20:29:00,52.3,50.9,30.06,East,83,0.0,3.0,95,0.00,,,0.01,VWS V14.01,2013-01-27 02:29:00,
2013-01-26 20:34:00,52.3,50.9,30.06,East,83,0.0,0.0,95,0.00,,,0.01,VWS V14.01,2013-01-27 02:34:00,
2013-01-26 20:39:00,52.5,51.1,30.06,East,83,0.0,0.0,95,0.00,,,0.01,VWS V14.01,2013-01-27 02:39:00,
2013-01-26 20:44:00,52.5,51.1,30.06,East,83,0.0,0.0,95,0.00,,,0.01,VWS V14.01,2013-01-27 02:44:00,
2013-01-26 20:49:00,52.5,51.1,30.06,East,83,0.0,3.0,95,0.00,,,0.01,VWS V14.01,2013-01-27 02:49:00,
2013-01-26 20:55:00,52.5,51.1,30.06,ESE,116,5.0,7.0,95,0.00,,,0.01,VWS V14.01,2013-01-27 02:55:00,
2013-01-26 21:00:00,52.5,51.1,30.06,ESE,105,4.0,7.0,95,0.00,,,0.01,VWS V14.01,2013-01-27 03:00:00,
2013-01-26 21:05:00,52.5,51.1,30.06,ESE,106,3.0,5.0,95,0.00,,,0.01,VWS V14.01,2013-01-27 03:05:00,
2013-01-26 21:10:00,52.5,51.1,30.06,ESE,106,5.0,5.0,95,0.00,,,0.01,VWS V14.01,2013-01-27 03:10:00,
2013-01-26 21:15:00,52.5,51.1,30.06,East,101,0.0,6.0,95,0.00,,,0.01,VWS V14.01,2013-01-27 03:15:00,
2013-01-26 21:20:00,52.6,51.2,30.06,East,101,2.0,3.0,95,0.00,,,0.01,VWS V14.01,2013-01-27 03:20:00,
2013-01-26 21:25:00,52.6,51.2,30.06,East,96,5.0,6.0,95,0.00,,,0.01,VWS V14.01,2013-01-27 03:25:00,
2013-01-26 21:30:00,52.5,51.1,30.06,East,84,5.0,6.0,95,0.00,,,0.01,VWS V14.01,2013-01-27 03:30:00,
2013-01-26 21:35:00,52.5,51.1,30.06,East,84,0.0,6.0,95,0.00,,,0.01,VWS V14.01,2013-01-27 03:35:00,
2013-01-26 21:41:00,52.3,50.9,30.06,East,84,0.0,0.0,95,0.00,,,0.01,VWS V14.01,2013-01-27 03:41:00,
2013-01-26 21:46:00,52.3,50.9,30.06,East,84,0.0,3.0,95,0.00,,,0.01,VWS V14.01,2013-01-27 03:46:00,
2013-01-26 21:51:00,52.3,50.9,30.06,East,84,0.0,0.0,95,0.00,,,0.01,VWS V14.01,2013-01-27 03:51:00,
2013-01-26 21:56:00,52.2,50.8,30.06,East,84,0.0,0.0,95,0.00,,,0.01,VWS V14.01,2013-01-27 03:56:00,
2013-01-26 22:01:00,52.2,50.8,30.06,East,84,0.0,0.0,95,0.00,,,0.01,VWS V14.01,2013-01-27 04:01:00,
2013-01-26 22:06:00,52.3,50.9,30.06,East,92,2.0,10.0,95,0.00,,,0.01,VWS V14.01,2013-01-27 04:06:00,
2013-01-26 22:11:00,52.2,50.8,30.06,East,97,2.0,5.0,95,0.00,,,0.01,VWS V14.01,2013-01-27 04:11:00,
2013-01-26 22:16:00,52.2,50.8,30.06,East,97,0.0,5.0,95,0.00,,,0.01,VWS V14.01,2013-01-27 04:16:00,
2013-01-26 22:21:00,52.3,50.9,30.06,East,82,3.0,6.0,95,0.00,,,0.01,VWS V14.01,2013-01-27 04:21:00,
2013-01-26 22:27:00,52.3,50.9,30.06,ESE,118,0.0,6.0,95,0.00,,,0.01,VWS V14.01,2013-01-27 04:27:00,
2013-01-26 22:32:00,52.3,50.9,30.06,ESE,105,0.0,4.0,95,0.00,,,0.01,VWS V14.01,2013-01-27 04:32:00,
2013-01-26 22:37:00,52.3,51.2,30.06,East,88,5.0,9.0,96,0.00,,,0.01,VWS V14.01,2013-01-27 04:37:00,
2013-01-26 22:42:00,52.3,51.2,30.06,East,88,0.0,4.0,96,0.00,,,0.01,VWS V14.01,2013-01-27 04:42:00,
2013-01-26 22:47:00,52.3,51.2,30.06,East,89,1.0,5.0,96,0.00,,,0.01,VWS V14.01,2013-01-27 04:47:00,
2013-01-26 22:52:00,52.3,51.2,30.06,East,88,3.0,5.0,96,0.00,,,0.01,VWS V14.01,2013-01-27 04:52:00,
2013-01-26 22:57:00,52.5,51.4,30.06,East,88,0.0,5.0,96,0.00,,,0.01,VWS V14.01,2013-01-27 04:57:00,
2013-01-26 23:00:00,52.5,51.4,30.06,East,98,4.0,7.0,96,0.00,,,0.01,VWS V14.01,2013-01-27 05:00:00,
2013-01-26 23:01:00,52.5,51.4,30.06,East,98,2.0,5.0,96,0.00,,,0.01,VWS V14.01,2013-01-27 05:01:00,
2013-01-26 23:07:00,52.5,51.4,30.06,East,98,2.0,5.0,96,0.00,,,0.01,VWS V14.01,2013-01-27 05:07:00,
2013-01-26 23:12:00,52.5,51.4,30.06,ESE,107,3.0,6.0,96,0.00,,,0.01,VWS V14.01,2013-01-27 05:12:00,
2013-01-26 23:14:00,52.5,51.4,30.06,ESE,108,5.0,7.0,96,0.00,,,0.01,VWS V14.01,2013-01-27 05:14:00,
2013-01-26 23:19:00,52.6,51.5,30.05,ESE,108,0.0,7.0,96,0.00,,,0.01,VWS V14.01,2013-01-27 05:19:00,
2013-01-26 23:24:00,52.6,51.5,30.05,ESE,107,4.0,6.0,96,0.00,,,0.01,VWS V14.01,2013-01-27 05:24:00,
2013-01-26 23:29:00,52.6,51.5,30.05,East,98,3.0,6.0,96,0.00,,,0.01,VWS V14.01,2013-01-27 05:29:00,
2013-01-26 23:34:00,52.6,51.5,30.05,East,98,4.0,5.0,96,0.00,,,0.01,VWS V14.01,2013-01-27 05:34:00,
2013-01-26 23:39:00,52.8,51.7,30.05,East,98,0.0,5.0,96,0.00,,,0.01,VWS V14.01,2013-01-27 05:39:00,
2013-01-26 23:44:00,52.9,51.8,30.05,ESE,104,2.0,6.0,96,0.00,,,0.01,VWS V14.01,2013-01-27 05:44:00,
2013-01-26 23:49:00,52.9,51.8,30.05,ESE,103,0.0,6.0,96,0.00,,,0.01,VWS V14.01,2013-01-27 05:49:00,
2013-01-26 23:54:00,53.1,52.0,30.05,East,101,5.0,6.0,96,0.00,,,0.01,VWS V14.01,2013-01-27 05:54:00,
2013-01-26 23:59:00,53.1,52.0,30.04,East,101,0.0,6.0,96,0.00,,,0.01,VWS V14.01,2013-01-27 05:59:00,